Terminal Aerodrome Forecast
Issued by NWS

Home | Current Version | Previous Version | Text Only | Print | Product List | Glossary On
Versions: 1 2 3 4 5 6 7 8 9 10 11 12 13 14
000
FTUS46 KPDT 250538
TAFBDN
TAF
KBDN 250538Z 2506/2606 VRB06KT P6SM VCSH BKN035 BKN050
     FM250800 VRB06KT P6SM VCSH BKN040 BKN150
     FM251200 24004KT P6SM VCSH BKN035 OVC100
     FM251800 29006KT P6SM VCSH BKN050 OVC100
     FM260200 32008KT P6SM SCT100 BKN250=

USA.gov is the U.S. government's official web portal to all federal, state and local government web resources and services.